Time;durP1;ratioP1;P1;durP2;ratioP2;P2;SDS_P1;SDS_P2;PMS_P1;PMS_P2;Temp;Humidity;BMP_temperature;BMP_pressure;BME280_temperature;BME280_humidity;BME280_pressure;Samples;Min_cycle;Max_cycle;Signal;HPM_P1;HPM_P2
2022/01/17 00:01:17;;;;;;;21.58;8.93;;;;;;;0.78;88.33;99327.19;4483993;32;20096;-71
2022/01/17 00:03:45;;;;;;;20.12;9.40;;;;;;;0.84;88.17;99321.78;4484050;32;20157;-71
2022/01/17 00:06:12;;;;;;;17.17;9.25;;;;;;;0.84;88.21;99308.91;4485994;31;20088;-70
2022/01/17 00:08:42;;;;;;;24.05;9.98;;;;;;;0.83;88.17;99308.06;4484724;32;20100;-70
2022/01/17 00:11:11;;;;;;;23.58;10.55;;;;;;;0.81;88.35;99312.44;4486333;32;20143;-70
2022/01/17 00:13:40;;;;;;;24.30;10.60;;;;;;;0.80;88.42;99300.44;4486025;31;20113;-70
2022/01/17 00:16:11;;;;;;;21.98;10.13;;;;;;;0.84;88.10;99301.16;4486019;31;20116;-71
2022/01/17 00:21:07;;;;;;;22.80;10.55;;;;;;;0.88;87.83;99298.38;4486006;31;20171;-70
2022/01/17 00:23:34;;;;;;;21.70;9.48;;;;;;;0.86;87.82;99313.09;4486019;31;20114;-70
2022/01/17 00:26:01;;;;;;;26.30;11.07;;;;;;;0.86;87.90;99336.31;4485881;31;20096;-70
2022/01/17 00:28:28;;;;;;;18.10;8.55;;;;;;;0.90;87.88;99318.13;4485941;31;20115;-70
2022/01/17 00:30:55;;;;;;;18.83;10.38;;;;;;;0.89;87.83;99317.28;4485935;31;20096;-70
2022/01/17 00:33:23;;;;;;;24.42;9.48;;;;;;;0.96;87.53;99321.28;4485818;31;20107;-70
2022/01/17 00:35:50;;;;;;;26.65;10.65;;;;;;;1.01;87.33;99328.84;4486045;31;20089;-70
2022/01/17 00:38:17;;;;;;;19.95;8.38;;;;;;;1.02;87.19;99322.78;4485951;31;20093;-70
2022/01/17 00:40:44;;;;;;;22.52;9.68;;;;;;;0.97;87.48;99320.41;4485968;31;20108;-70
2022/01/17 00:43:12;;;;;;;14.15;7.47;;;;;;;1.01;87.44;99324.50;4485910;31;20088;-70
2022/01/17 00:45:41;;;;;;;22.77;9.65;;;;;;;1.13;86.42;99350.72;4486210;31;20431;-70
2022/01/17 00:48:09;;;;;;;21.67;8.35;;;;;;;1.15;86.26;99328.25;4484520;32;20139;-70
2022/01/17 00:50:38;;;;;;;23.38;8.85;;;;;;;1.22;85.98;99327.94;4485735;31;20133;-70
2022/01/17 00:53:09;;;;;;;19.98;8.45;;;;;;;1.22;85.92;99316.78;4485499;31;20080;-71
2022/01/17 00:55:37;;;;;;;16.85;7.87;;;;;;;1.25;85.60;99311.50;4485762;32;20089;-70
2022/01/17 00:58:05;;;;;;;13.70;6.35;;;;;;;1.31;85.33;99326.72;4485831;31;20125;-70
2022/01/17 01:00:32;;;;;;;23.73;7.57;;;;;;;1.37;84.77;99315.31;4485664;31;20130;-71
2022/01/17 01:03:00;;;;;;;22.62;7.28;;;;;;;1.44;84.28;99314.13;4485656;31;20223;-70
2022/01/17 01:05:27;;;;;;;20.65;8.55;;;;;;;1.48;83.97;99307.91;4485655;31;20119;-70
2022/01/17 01:07:55;;;;;;;12.45;6.40;;;;;;;1.53;83.52;99310.31;4485889;31;20088;-70
2022/01/17 01:10:23;;;;;;;13.30;7.50;;;;;;;1.56;83.24;99320.50;4486081;31;20123;-71
2022/01/17 01:12:51;;;;;;;13.98;6.68;;;;;;;1.63;82.81;99332.25;4485694;31;20087;-71
2022/01/17 01:15:23;;;;;;;11.40;5.53;;;;;;;1.70;82.15;99294.09;4485008;31;20104;-70
2022/01/17 01:17:55;;;;;;;15.63;6.60;;;;;;;1.74;81.97;99308.53;4485886;31;20089;-70
2022/01/17 01:28:25;;;;;;;9.20;4.55;;;;;;;1.78;81.26;99289.41;4485595;31;20130;-71
2022/01/17 01:30:54;;;;;;;8.02;4.70;;;;;;;1.77;81.13;99293.75;4485656;31;20495;-70
2022/01/17 01:33:35;;;;;;;9.60;4.53;;;;;;;1.82;80.73;99293.53;4485674;31;20160;-71
2022/01/17 01:36:09;;;;;;;15.05;5.30;;;;;;;1.85;80.77;99301.16;4485741;31;20131;-71
2022/01/17 01:38:39;;;;;;;16.20;6.55;;;;;;;1.81;80.74;99297.03;4484339;32;20506;-71
2022/01/17 01:41:07;;;;;;;10.38;4.87;;;;;;;1.78;80.86;99287.66;4485780;31;20542;-71
2022/01/17 01:43:34;;;;;;;11.75;5.07;;;;;;;1.81;80.42;99284.09;4485353;31;20084;-70
2022/01/17 01:46:02;;;;;;;13.80;4.97;;;;;;;1.80;80.61;99285.00;4485625;31;20123;-70
2022/01/17 01:48:32;;;;;;;8.70;5.22;;;;;;;1.81;80.28;99298.78;4485489;31;20449;-70
2022/01/17 01:50:59;;;;;;;13.62;6.18;;;;;;;1.78;80.45;99289.41;4485367;31;20111;-70
2022/01/17 01:53:26;;;;;;;13.00;6.05;;;;;;;1.76;80.61;99288.66;4485386;31;20092;-70
2022/01/17 01:55:56;;;;;;;12.48;4.87;;;;;;;1.80;80.53;99289.34;4485314;31;20099;-70
2022/01/17 01:58:24;;;;;;;10.20;5.12;;;;;;;1.78;80.52;99289.41;4485614;31;20123;-71
2022/01/17 02:00:52;;;;;;;13.85;6.32;;;;;;;1.78;80.71;99286.81;4485189;31;20093;-71
2022/01/17 02:03:20;;;;;;;16.58;6.50;;;;;;;1.74;80.94;99282.69;4485390;31;20096;-71
2022/01/17 02:05:48;;;;;;;11.00;5.70;;;;;;;1.73;81.18;99278.47;4485294;31;20161;-71
2022/01/17 02:08:16;;;;;;;14.68;6.72;;;;;;;1.71;81.19;99286.28;4485286;31;20085;-70
2022/01/17 02:10:43;;;;;;;12.30;5.37;;;;;;;1.73;81.18;99287.03;4485160;31;20449;-70
2022/01/17 02:13:10;;;;;;;15.15;6.30;;;;;;;1.70;81.35;99281.19;4485397;31;20088;-71
2022/01/17 02:15:39;;;;;;;10.05;5.12;;;;;;;1.74;81.08;99293.03;4485046;31;20142;-71
2022/01/17 02:18:08;;;;;;;12.10;5.78;;;;;;;1.74;81.05;99283.56;4485418;31;20556;-70
2022/01/17 02:20:43;;;;;;;10.70;5.60;;;;;;;1.75;81.18;99294.72;4484889;31;20096;-71
2022/01/17 02:23:11;;;;;;;14.32;6.22;;;;;;;1.79;81.13;99285.94;4485232;31;20109;-71
2022/01/17 02:25:38;;;;;;;12.30;5.72;;;;;;;1.74;81.38;99290.44;4484783;31;20163;-71
2022/01/17 02:28:06;;;;;;;11.18;6.07;;;;;;;1.72;81.65;99279.34;4484656;31;20100;-70
2022/01/17 02:30:33;;;;;;;12.70;6.28;;;;;;;1.70;81.68;99296.66;4485011;32;20123;-70
2022/01/17 02:33:01;;;;;;;15.60;6.30;;;;;;;1.73;81.68;99278.47;4485236;31;20505;-71
2022/01/17 02:35:29;;;;;;;11.15;4.62;;;;;;;1.73;81.34;99273.28;4484861;31;20123;-70
2022/01/17 02:37:57;;;;;;;8.20;5.00;;;;;;;1.73;81.53;99268.13;4485307;31;20107;-71
2022/01/17 02:40:25;;;;;;;11.05;5.53;;;;;;;1.72;81.29;99269.03;4484889;31;20148;-71
2022/01/17 02:43:02;;;;;;;10.52;5.90;;;;;;;1.70;81.40;99271.66;4485151;31;20146;-70
2022/01/17 02:45:37;;;;;;;8.57;3.95;;;;;;;1.69;81.29;99264.81;4484970;31;20135;-71
2022/01/17 02:48:07;;;;;;;11.93;5.37;;;;;;;1.70;81.21;99263.94;4485389;31;20544;-70
2022/01/17 02:50:35;;;;;;;17.73;6.03;;;;;;;1.69;81.10;99262.25;4484791;31;20131;-70
2022/01/17 02:53:07;;;;;;;12.20;5.25;;;;;;;1.64;81.37;99250.47;4483650;32;20106;-70
2022/01/17 02:55:36;;;;;;;9.38;4.60;;;;;;;1.65;81.25;99259.88;4484700;31;20127;-70
2022/01/17 02:58:03;;;;;;;11.23;4.62;;;;;;;1.61;81.35;99246.25;4485043;31;20748;-70
2022/01/17 03:00:31;;;;;;;11.63;6.20;;;;;;;1.57;81.46;99248.13;4484698;31;20104;-70
2022/01/17 03:02:58;;;;;;;11.12;5.55;;;;;;;1.53;81.42;99230.25;4484967;31;20412;-70
2022/01/17 03:05:25;;;;;;;12.32;5.00;;;;;;;1.53;81.50;99236.28;4484899;32;20092;-70
2022/01/17 03:07:52;;;;;;;9.77;5.03;;;;;;;1.46;81.47;99234.88;4484876;31;20126;-70
2022/01/17 03:10:39;;;;;;;10.05;4.90;;;;;;;1.51;81.07;99194.19;4484770;31;20429;-70
2022/01/17 03:13:19;;;;;;;8.45;4.90;;;;;;;1.48;81.24;99199.47;4484985;32;20071;-70
2022/01/17 03:15:54;;;;;;;11.15;5.12;;;;;;;1.49;80.99;99190.84;4485086;31;20111;-71
2022/01/17 03:18:21;;;;;;;;;;;;;;;1.47;81.15;99189.22;4485514;32;20100;-70
2022/01/17 03:20:49;;;;;;;10.25;4.18;;;;;;;1.41;81.41;99191.19;4484535;32;19992;-71
2022/01/17 03:23:16;;;;;;;11.80;4.75;;;;;;;1.39;81.58;99203.34;4483597;32;20076;-70
2022/01/17 03:25:44;;;;;;;9.77;5.00;;;;;;;1.34;81.53;99197.53;4484203;31;20521;-71
2022/01/17 03:28:11;;;;;;;6.87;3.75;;;;;;;1.35;81.50;99181.12;4484764;31;20171;-71
2022/01/17 03:30:39;;;;;;;10.55;6.10;;;;;;;1.39;81.19;99185.28;4484538;31;20088;-71
2022/01/17 03:33:08;;;;;;;10.88;5.25;;;;;;;1.39;81.14;99197.31;4484555;31;20500;-71
2022/01/17 03:35:38;;;;;;;9.95;4.87;;;;;;;1.42;80.96;99208.37;4484346;31;20120;-71
2022/01/17 03:38:07;;;;;;;12.00;4.45;;;;;;;1.41;80.85;99204.09;4484553;31;20397;-71
2022/01/17 03:40:40;;;;;;;13.40;5.65;;;;;;;1.37;81.11;99206.88;4486076;31;20096;-70
2022/01/17 03:43:07;;;;;;;12.75;5.53;;;;;;;1.32;81.32;99219.16;4486460;31;20720;-71
2022/01/17 03:45:35;;;;;;;15.10;5.95;;;;;;;1.31;81.51;99238.97;4486205;31;20173;-70
2022/01/17 03:48:02;;;;;;;13.48;6.60;;;;;;;1.26;81.83;99247.78;4486366;31;20118;-70
2022/01/17 03:50:29;;;;;;;11.80;5.00;;;;;;;1.23;82.14;99247.03;4485856;31;20475;-71
2022/01/17 03:52:56;;;;;;;11.93;4.50;;;;;;;1.25;82.15;99249.56;4486659;31;20116;-71
2022/01/17 03:55:24;;;;;;;12.88;5.82;;;;;;;1.19;82.44;99263.56;4486064;31;20164;-70
2022/01/17 03:57:51;;;;;;;12.90;5.72;;;;;;;1.16;82.74;99265.44;4486208;31;20490;-71
2022/01/17 04:00:27;;;;;;;13.90;6.60;;;;;;;1.12;82.80;99269.03;4486477;31;20115;-70
2022/01/17 04:02:55;;;;;;;14.18;6.72;;;;;;;1.06;83.39;99272.75;4486211;32;20518;-71
2022/01/17 04:05:22;;;;;;;13.73;6.18;;;;;;;1.12;83.33;99279.38;4486365;31;20157;-71
2022/01/17 04:07:50;;;;;;;11.88;5.95;;;;;;;1.14;83.54;99283.56;4486086;31;20096;-70
2022/01/17 04:10:17;;;;;;;13.48;6.03;;;;;;;1.17;83.59;99280.84;4486244;31;20183;-71
2022/01/17 04:12:45;;;;;;;13.40;5.85;;;;;;;1.17;83.74;99269.69;4486153;31;20442;-70
2022/01/17 04:15:12;;;;;;;14.60;7.28;;;;;;;1.21;83.62;99266.06;4486085;31;20115;-70
2022/01/17 04:17:42;;;;;;;13.62;6.78;;;;;;;1.19;83.81;99253.22;4486074;31;20804;-71
2022/01/17 04:20:14;;;;;;;13.07;7.03;;;;;;;1.16;83.91;99258.53;4485992;31;20092;-70
2022/01/17 04:22:49;;;;;;;16.08;6.35;;;;;;;1.19;83.89;99255.81;4486316;31;20111;-70
2022/01/17 04:25:16;;;;;;;15.82;6.78;;;;;;;1.19;84.00;99265.31;4486496;31;20116;-70
2022/01/17 04:27:44;;;;;;;14.87;7.25;;;;;;;1.25;83.70;99265.03;4485777;31;20088;-70
2022/01/17 04:30:13;;;;;;;12.73;6.47;;;;;;;1.24;83.79;99271.94;4486030;32;20088;-70
2022/01/17 04:32:42;;;;;;;14.20;6.37;;;;;;;1.35;83.44;99274.06;4485880;31;20458;-71
2022/01/17 04:35:11;;;;;;;17.80;7.60;;;;;;;1.28;83.76;99293.28;4486120;31;20176;-71
2022/01/17 04:37:38;;;;;;;19.87;6.97;;;;;;;1.33;83.73;99295.69;4486005;31;20087;-71
2022/01/17 04:40:07;;;;;;;13.45;6.22;;;;;;;1.28;83.92;99293.28;4485851;31;20107;-71
2022/01/17 04:42:34;;;;;;;18.75;7.50;;;;;;;1.37;83.70;99284.31;4485804;31;20168;-71
2022/01/17 04:45:08;;;;;;;13.13;6.53;;;;;;;1.38;83.51;99273.94;4485978;31;20096;-71
2022/01/17 04:47:36;;;;;;;13.48;6.40;;;;;;;1.36;83.61;99278.34;4485838;31;20139;-70
2022/01/17 04:50:06;;;;;;;14.90;7.20;;;;;;;1.41;83.48;99263.47;4485856;31;20096;-70
2022/01/17 04:52:35;;;;;;;14.63;6.50;;;;;;;1.44;83.51;99270.25;4485740;31;20108;-70
2022/01/17 04:55:08;;;;;;;12.32;5.75;;;;;;;1.46;83.27;99271.00;4485804;31;20355;-70
2022/01/17 04:57:38;;;;;;;13.25;6.35;;;;;;;1.50;83.08;99262.25;4485772;31;20089;-70
2022/01/17 05:00:08;;;;;;;14.38;6.18;;;;;;;1.51;83.02;99239.81;4484516;32;20127;-70
2022/01/17 05:02:36;;;;;;;14.07;6.07;;;;;;;1.49;83.20;99252.81;4475473;31;20100;-70
2022/01/17 05:05:04;;;;;;;16.95;6.62;;;;;;;1.49;83.07;99232.16;4474799;31;20458;-70
2022/01/17 05:07:33;;;;;;;12.73;6.28;;;;;;;1.50;82.97;99244.16;4476274;32;20156;-71
2022/01/17 05:10:03;;;;;;;15.15;6.47;;;;;;;1.49;82.96;99232.16;4479638;31;20168;-71
2022/01/17 05:12:31;;;;;;;13.60;6.72;;;;;;;1.56;82.72;99251.63;4484714;31;20437;-71
2022/01/17 05:14:59;;;;;;;16.62;6.70;;;;;;;1.56;82.69;99256.81;4470190;32;20539;-71
2022/01/17 05:19:57;;;;;;;12.15;6.53;;;;;;;1.53;83.39;99258.66;4479613;31;20108;-72
2022/01/17 05:22:31;;;;;;;14.13;6.78;;;;;;;1.65;82.38;99258.12;4476492;31;20101;-72
2022/01/17 05:25:05;;;;;;;14.02;5.78;;;;;;;1.68;82.56;99265.75;4471225;32;20096;-72
2022/01/17 05:27:34;;;;;;;15.48;6.87;;;;;;;1.77;82.53;99256.72;4484386;32;20119;-72
2022/01/17 05:30:08;;;;;;;12.73;6.60;;;;;;;1.78;82.09;99261.81;4483711;31;20453;-72
2022/01/17 05:32:35;;;;;;;13.35;5.68;;;;;;;1.81;81.73;99260.03;4469565;32;20108;-72
2022/01/17 05:35:03;;;;;;;18.80;6.97;;;;;;;1.78;81.69;99255.81;4482676;32;20097;-72
2022/01/17 05:37:33;;;;;;;14.27;5.87;;;;;;;1.82;81.84;99244.47;4483940;31;20465;-71
2022/01/17 05:40:01;;;;;;;16.33;6.37;;;;;;;1.85;81.78;99241.72;4479547;32;20416;-71
2022/01/17 05:42:28;;;;;;;11.85;5.95;;;;;;;1.88;81.32;99226.09;4485382;31;20092;-72
2022/01/17 05:44:55;;;;;;;12.75;5.18;;;;;;;1.87;81.11;99229.56;4475764;32;20115;-72
2022/01/17 05:47:23;;;;;;;13.82;5.90;;;;;;;1.87;81.09;99228.75;4476647;31;20156;-71
2022/01/17 05:49:50;;;;;;;13.60;5.68;;;;;;;1.93;81.59;99237.03;4478360;31;20084;-71
2022/01/17 05:52:17;;;;;;;11.68;5.93;;;;;;;1.91;80.43;99238.87;4470564;31;20127;-72
2022/01/17 05:54:45;;;;;;;12.37;6.18;;;;;;;1.94;80.75;99222.38;4479520;32;20136;-71
2022/01/17 05:57:12;;;;;;;15.88;7.07;;;;;;;1.99;81.10;99229.94;4478996;31;20096;-72
2022/01/17 05:59:40;;;;;;;11.77;5.85;;;;;;;1.98;80.79;99228.25;4472957;32;20124;-72
2022/01/17 06:02:07;;;;;;;12.07;5.75;;;;;;;1.97;80.13;99226.56;4473427;32;20123;-72
2022/01/17 06:04:35;;;;;;;10.95;5.70;;;;;;;1.95;79.87;99214.56;4469682;32;20931;-72
2022/01/17 06:07:03;;;;;;;13.85;5.53;;;;;;;1.97;79.94;99216.22;4469197;32;20135;-72
2022/01/17 06:09:30;;;;;;;11.12;5.12;;;;;;;1.99;79.71;99219.59;4485100;32;20089;-72
2022/01/17 06:11:58;;;;;;;11.15;5.75;;;;;;;1.99;79.88;99212.66;4485065;31;20107;-72
2022/01/17 06:14:25;;;;;;;10.30;5.93;;;;;;;2.03;79.51;99200.44;4484938;31;20108;-72
2022/01/17 06:16:52;;;;;;;13.25;5.85;;;;;;;2.02;79.49;99209.09;4482712;32;20104;-72
2022/01/17 06:19:20;;;;;;;9.98;5.30;;;;;;;2.02;79.68;99206.53;4484692;31;20076;-72
2022/01/17 06:21:47;;;;;;;16.37;5.80;;;;;;;2.05;79.84;99214.97;4484634;31;20149;-72
2022/01/17 06:24:16;;;;;;;10.15;5.00;;;;;;;2.03;79.55;99211.62;4484812;31;20152;-71
2022/01/17 06:26:45;;;;;;;13.52;5.05;;;;;;;1.99;79.78;99222.19;4484817;31;20450;-70
2022/01/17 06:29:13;;;;;;;11.20;5.32;;;;;;;1.94;80.17;99219.81;4484758;31;20148;-71
2022/01/17 06:31:41;;;;;;;12.57;5.53;;;;;;;1.95;80.09;99218.88;4485151;31;20096;-72
2022/01/17 06:34:10;;;;;;;7.68;4.30;;;;;;;1.98;79.95;99243.75;4485075;31;20130;-71
2022/01/17 06:36:41;;;;;;;10.30;5.25;;;;;;;1.94;80.01;99220.62;4485273;31;20096;-72
2022/01/17 06:39:10;;;;;;;7.35;4.70;;;;;;;1.94;80.16;99220.62;4485011;31;20085;-71
2022/01/17 06:41:39;;;;;;;11.55;4.80;;;;;;;2.02;79.71;99219.44;4485177;31;20095;-71
2022/01/17 06:44:07;;;;;;;7.97;4.12;;;;;;;1.99;79.62;99199.75;4484610;31;20119;-71
2022/01/17 06:46:34;;;;;;;9.75;4.37;;;;;;;2.05;79.24;99198.63;4485046;31;20112;-71
2022/01/17 06:49:02;;;;;;;8.60;3.85;;;;;;;2.09;79.10;99184.63;4484762;31;20113;-71
2022/01/17 06:51:29;;;;;;;11.00;5.30;;;;;;;2.13;79.00;99186.16;4485042;31;20096;-71
2022/01/17 06:53:56;;;;;;;10.55;4.60;;;;;;;2.16;78.90;99188.59;4484430;31;20108;-71
2022/01/17 06:56:24;;;;;;;7.60;4.28;;;;;;;2.20;78.64;99191.91;4484925;31;20163;-70
2022/01/17 06:58:51;;;;;;;8.55;3.85;;;;;;;2.23;78.56;99202.91;4484880;31;20545;-71
2022/01/17 07:01:20;;;;;;;10.82;4.55;;;;;;;2.29;78.22;99202.63;4482219;31;20115;-70
2022/01/17 07:03:50;;;;;;;9.60;4.65;;;;;;;2.29;78.29;99187.09;4467452;31;20116;-71
2022/01/17 07:06:18;;;;;;;6.05;3.33;;;;;;;2.35;78.21;99185.13;4481929;31;20108;-71
2022/01/17 07:08:45;;;;;;;10.20;4.15;;;;;;;2.38;77.87;99188.41;4481126;31;20089;-70
2022/01/17 07:11:13;;;;;;;7.87;3.92;;;;;;;2.44;77.82;99184.69;4489309;31;20122;-71
2022/01/17 07:13:40;;;;;;;6.20;3.45;;;;;;;2.44;77.81;99172.59;4484101;31;20114;-71
2022/01/17 07:16:07;;;;;;;7.45;4.40;;;;;;;2.48;77.61;99161.19;4486184;31;20135;-70
2022/01/17 07:18:35;;;;;;;8.82;4.12;;;;;;;2.51;77.59;99170.53;4498956;31;20427;-70
2022/01/17 07:21:02;;;;;;;10.80;5.62;;;;;;;2.53;77.58;99179.06;4482982;31;20083;-70
2022/01/17 07:23:29;;;;;;;8.77;3.67;;;;;;;2.54;77.50;99183.31;4476894;31;20096;-71
2022/01/17 07:25:57;;;;;;;9.45;4.68;;;;;;;2.54;77.62;99180.72;4485471;31;20092;-70
2022/01/17 07:28:27;;;;;;;10.55;4.20;;;;;;;2.51;77.67;99180.88;4484751;31;20108;-70
2022/01/17 07:30:54;;;;;;;5.85;2.92;;;;;;;2.58;77.40;99202.13;4482865;31;20127;-71
2022/01/17 07:33:24;;;;;;;10.02;4.62;;;;;;;2.66;76.80;99221.53;4483486;31;20510;-71
2022/01/17 07:35:51;;;;;;;7.28;3.28;;;;;;;2.71;76.49;99223.03;4482635;31;20149;-71
2022/01/17 07:38:19;;;;;;;9.18;3.78;;;;;;;2.76;76.44;99226.25;4480123;31;20107;-71
2022/01/17 07:40:46;;;;;;;5.90;3.10;;;;;;;2.80;76.20;99243.25;4475438;32;20100;-70
2022/01/17 07:43:13;;;;;;;6.00;2.78;;;;;;;2.88;75.78;99248.03;4485578;31;20088;-70
2022/01/17 07:45:54;;;;;;;6.62;3.25;;;;;;;2.92;75.57;99276.31;4484071;31;20147;-70
2022/01/17 07:51:08;;;;;;;5.68;2.45;;;;;;;3.06;74.85;99291.16;4483863;31;20539;-70
2022/01/17 07:53:35;;;;;;;7.00;3.53;;;;;;;3.08;74.88;99273.78;4483903;31;20097;-70
2022/01/17 07:56:03;;;;;;;7.57;3.37;;;;;;;3.08;75.07;99241.88;4485264;31;20449;-70
2022/01/17 07:58:30;;;;;;;11.48;3.42;;;;;;;2.98;75.38;99237.19;4484158;32;20092;-70
2022/01/17 08:00:57;;;;;;;4.28;2.70;;;;;;;2.99;75.26;99212.97;4483829;31;20126;-70
2022/01/17 08:03:25;;;;;;;8.60;3.40;;;;;;;3.00;75.30;99211.22;4480158;31;20101;-70
2022/01/17 08:05:52;;;;;;;6.20;2.45;;;;;;;2.99;75.42;99231.06;4482592;32;20126;-70
2022/01/17 08:08:19;;;;;;;7.05;3.33;;;;;;;2.95;75.65;99221.81;4483815;31;20097;-70
2022/01/17 08:10:47;;;;;;;6.97;3.40;;;;;;;2.94;75.96;99232.25;4489242;31;20193;-70
2022/01/17 08:13:14;;;;;;;10.73;3.92;;;;;;;2.92;75.96;99198.69;4485427;31;20107;-71
2022/01/17 08:15:42;;;;;;;7.43;3.62;;;;;;;2.92;76.13;99172.81;4483798;31;20748;-70
2022/01/17 08:18:10;;;;;;;9.35;4.55;;;;;;;2.87;76.40;99164.41;4489334;31;20092;-70
2022/01/17 08:20:37;;;;;;;8.43;4.03;;;;;;;2.87;76.57;99174.78;4472750;32;20152;-71
2022/01/17 08:23:04;;;;;;;7.00;3.70;;;;;;;2.91;76.40;99160.78;4483384;31;20398;-71
2022/01/17 08:25:32;;;;;;;5.75;3.40;;;;;;;2.97;76.24;99147.50;4484754;31;20101;-72
2022/01/17 08:27:59;;;;;;;7.32;3.42;;;;;;;3.05;75.86;99147.09;4485374;31;20152;-72
2022/01/17 08:30:26;;;;;;;8.35;3.87;;;;;;;3.05;75.75;99154.87;4485806;31;20114;-73
2022/01/17 08:33:13;;;;;;;11.10;3.83;;;;;;;3.08;75.75;99146.13;4485583;31;20456;-72
2022/01/17 08:35:41;;;;;;;9.15;4.15;;;;;;;3.18;75.16;99142.13;4483996;31;20438;-72
2022/01/17 08:38:08;;;;;;;7.97;3.22;;;;;;;3.29;74.92;99155.34;4485626;31;20096;-72
2022/01/17 08:40:36;;;;;;;9.80;3.92;;;;;;;3.30;74.91;99167.38;4486653;31;20120;-73
2022/01/17 08:43:03;;;;;;;8.77;3.42;;;;;;;3.33;74.69;99167.22;4485538;31;20504;-72
2022/01/17 08:45:30;;;;;;;9.43;3.92;;;;;;;3.37;74.62;99191.19;4485047;31;20089;-71
2022/01/17 08:48:12;;;;;;;7.45;3.50;;;;;;;3.40;74.58;99200.53;4469800;32;20119;-71
2022/01/17 08:50:41;;;;;;;8.73;4.22;;;;;;;3.43;74.53;99213.34;4469633;32;20499;-71
2022/01/17 08:53:10;;;;;;;8.88;4.22;;;;;;;3.43;74.47;99206.38;4481047;32;20088;-70
2022/01/17 08:55:38;;;;;;;5.87;3.75;;;;;;;3.43;74.61;99213.34;4484985;31;20471;-70
2022/01/17 08:58:06;;;;;;;6.90;3.67;;;;;;;3.40;74.64;99197.97;4491664;31;20105;-69
2022/01/17 09:00:33;;;;;;;9.57;4.47;;;;;;;3.33;75.00;99200.87;4475624;31;20160;-69
2022/01/17 09:03:19;;;;;;;5.47;3.20;;;;;;;3.24;75.89;99174.62;4475384;32;20101;-71
2022/01/17 09:05:48;;;;;;;9.68;3.92;;;;;;;3.19;76.50;99143.78;4474654;32;20183;-71
2022/01/17 09:08:16;;;;;;;8.77;4.80;;;;;;;3.24;77.21;99166.84;4482504;32;20105;-70
2022/01/17 09:10:45;;;;;;;9.68;4.60;;;;;;;3.19;77.70;99169.69;4485230;31;20566;-71
2022/01/17 09:13:12;;;;;;;17.12;4.75;;;;;;;3.22;77.95;99166.94;4485676;31;20096;-71
2022/01/17 09:15:39;;;;;;;8.65;4.37;;;;;;;3.18;78.11;99165.44;4473162;31;20577;-71
2022/01/17 09:18:07;;;;;;;7.37;4.22;;;;;;;3.17;77.92;99143.03;4485224;31;20096;-71
2022/01/17 09:20:35;;;;;;;9.68;4.37;;;;;;;3.22;77.34;99159.16;4484875;31;20100;-71
2022/01/17 09:23:03;;;;;;;9.70;4.05;;;;;;;3.23;76.75;99154.84;4499368;31;20138;-71
2022/01/17 09:25:31;;;;;;;10.95;3.70;;;;;;;3.19;76.76;99164.50;4484612;32;20101;-70
2022/01/17 09:27:58;;;;;;;7.15;4.05;;;;;;;3.27;76.20;99159.78;4485310;31;20088;-70
2022/01/17 09:30:26;;;;;;;9.52;4.22;;;;;;;3.27;75.91;99139.06;4493264;31;20103;-71
2022/01/17 09:32:53;;;;;;;8.82;4.62;;;;;;;3.30;75.66;99148.37;4497923;31;20139;-71
2022/01/17 09:35:21;;;;;;;9.50;4.75;;;;;;;3.30;75.66;99145.81;4493565;31;20121;-71
2022/01/17 09:37:49;;;;;;;10.02;4.57;;;;;;;3.30;75.69;99144.06;4491863;31;20092;-71
2022/01/17 09:40:19;;;;;;;8.40;4.70;;;;;;;3.32;75.60;99126.69;4485399;31;20091;-71
2022/01/17 09:42:46;;;;;;;7.78;4.65;;;;;;;3.41;75.07;99125.37;4485578;31;20097;-70
2022/01/17 09:45:17;;;;;;;9.32;4.37;;;;;;;3.43;74.88;99123.50;4482558;31;20092;-72
2022/01/17 09:47:45;;;;;;;10.13;5.12;;;;;;;3.45;74.83;99118.25;4475018;31;168582;-71
2022/01/17 09:50:22;;;;;;;8.35;4.25;;;;;;;3.47;74.64;99095.72;4482660;31;20092;-71
2022/01/17 09:52:51;;;;;;;8.27;4.40;;;;;;;3.59;74.05;99081.22;4483255;31;20160;-71
2022/01/17 09:55:24;;;;;;;10.30;4.70;;;;;;;3.59;73.71;99061.34;4483349;31;20092;-71
2022/01/17 09:58:05;;;;;;;6.10;3.67;;;;;;;3.67;73.07;99055.75;4486304;31;20112;-70
2022/01/17 10:00:36;;;;;;;12.00;4.53;;;;;;;3.63;72.95;99060.25;4484036;31;20080;-70
2022/01/17 10:03:07;;;;;;;9.63;4.90;;;;;;;3.65;72.71;99055.81;4485378;31;20496;-71
2022/01/17 10:05:36;;;;;;;8.35;4.30;;;;;;;3.64;72.84;99067.09;4486399;31;20092;-70
2022/01/17 10:08:11;;;;;;;9.75;4.78;;;;;;;3.66;72.81;99069.59;4485601;31;20168;-71
2022/01/17 10:10:43;;;;;;;7.90;4.32;;;;;;;3.68;nan;99058.25;4488327;31;20118;-72
2022/01/17 10:13:18;;;;;;;7.22;3.75;;;;;;;3.69;72.41;99049.56;4483414;32;20479;-72
2022/01/17 10:16:11;;;;;;;12.95;5.05;;;;;;;3.70;72.38;99046.03;4483419;31;20097;-71
2022/01/17 10:18:48;;;;;;;9.55;4.32;;;;;;;3.70;72.36;99058.97;4479618;32;20792;-70
2022/01/17 10:21:50;;;;;;;5.70;3.30;;;;;;;3.71;72.31;99052.88;4475802;31;20084;-71
2022/01/17 10:35:23;;;;;;;8.50;4.32;;;;;;;3.95;71.50;99020.47;4481605;31;20103;-72
2022/01/17 10:38:10;;;;;;;7.37;3.47;;;;;;;3.97;71.51;99021.22;4484196;31;20100;-71
2022/01/17 10:40:45;;;;;;;10.23;4.53;;;;;;;4.04;71.07;99013.00;4478210;31;20116;-69
2022/01/17 10:43:20;;;;;;;7.03;3.87;;;;;;;4.06;71.19;99013.75;4485567;31;20080;-71
2022/01/17 10:45:48;;;;;;;7.78;3.65;;;;;;;4.11;71.31;99005.69;4485382;31;20100;-71
2022/01/17 10:48:15;;;;;;;7.40;3.67;;;;;;;4.14;71.32;98987.34;4483734;32;20126;-70
2022/01/17 10:50:47;;;;;;;10.25;3.60;;;;;;;4.15;71.50;98981.25;4485984;31;20101;-72
2022/01/17 10:53:16;;;;;;;6.82;3.37;;;;;;;4.24;71.41;98979.87;4483779;32;20796;-72
2022/01/17 10:55:48;;;;;;;8.93;3.83;;;;;;;4.38;71.20;98992.84;4483273;32;20195;-72
2022/01/17 10:58:25;;;;;;;8.75;3.62;;;;;;;4.39;71.26;98988.47;4499483;31;20119;-72
2022/01/17 11:01:01;;;;;;;7.53;3.47;;;;;;;4.42;71.46;98977.91;4492173;31;20120;-70
2022/01/17 11:03:33;;;;;;;11.65;4.75;;;;;;;4.41;71.45;98961.53;4484298;31;20489;-72
2022/01/17 11:06:04;;;;;;;8.45;4.03;;;;;;;4.43;71.53;98959.66;4484662;31;20104;-73
2022/01/17 11:08:34;;;;;;;8.20;4.00;;;;;;;4.45;71.16;98946.59;4484215;31;20100;-71
2022/01/17 11:11:05;;;;;;;7.82;4.78;;;;;;;4.49;70.89;98944.66;4483723;32;20493;-71
2022/01/17 11:13:35;;;;;;;7.50;3.67;;;;;;;4.56;70.79;98946.78;4484502;31;20487;-71
2022/01/17 11:16:07;;;;;;;9.82;3.92;;;;;;;4.61;70.35;98928.34;4484666;31;20460;-72
2022/01/17 11:18:36;;;;;;;7.78;4.35;;;;;;;4.60;70.53;98939.63;4477608;32;20197;-71
2022/01/17 11:21:10;;;;;;;10.75;4.00;;;;;;;4.60;70.61;98929.25;4484006;31;20446;-71
2022/01/17 11:23:39;;;;;;;8.50;4.57;;;;;;;4.61;70.51;98928.34;4484813;31;20077;-71
2022/01/17 11:26:06;;;;;;;7.62;3.92;;;;;;;4.62;70.53;98894.50;4484365;31;20165;-71
2022/01/17 11:28:34;;;;;;;10.10;4.28;;;;;;;4.66;70.63;98887.34;4485671;31;20127;-71
2022/01/17 11:31:05;;;;;;;9.48;4.55;;;;;;;4.66;70.49;98913.31;4482784;31;20160;-71
2022/01/17 11:33:34;;;;;;;7.10;3.75;;;;;;;4.68;70.20;98902.81;4483514;31;20238;-71
2022/01/17 11:36:02;;;;;;;10.27;5.00;;;;;;;4.66;70.18;98882.16;4494695;31;20087;-71
2022/01/17 11:38:32;;;;;;;9.60;4.40;;;;;;;4.58;70.73;98910.37;4492111;31;20389;-71
2022/01/17 11:41:00;;;;;;;8.70;4.55;;;;;;;4.55;70.89;98908.78;4482798;32;20111;-71
2022/01/17 11:43:34;;;;;;;10.25;4.97;;;;;;;4.55;71.06;98926.13;4483408;31;20084;-71
2022/01/17 11:46:18;;;;;;;12.07;5.30;;;;;;;4.52;71.33;98934.09;4491124;31;20107;-71
2022/01/17 11:49:02;;;;;;;9.27;3.95;;;;;;;4.53;71.48;98921.03;4483365;31;20100;-71
2022/01/17 11:51:46;;;;;;;6.35;2.55;;;;;;;4.58;70.72;98910.37;4494941;31;22047;-71
2022/01/17 11:54:13;;;;;;;5.62;3.17;;;;;;;4.64;70.66;98924.72;4491618;31;20119;-70
2022/01/17 11:56:45;;;;;;;5.25;3.25;;;;;;;4.72;70.22;98918.09;4484118;31;20085;-70
2022/01/17 11:59:39;;;;;;;4.93;2.80;;;;;;;4.77;69.84;98912.66;4483006;31;20083;-71
2022/01/17 12:02:18;;;;;;;5.90;2.87;;;;;;;4.72;69.93;98897.34;4487162;31;20187;-71
2022/01/17 12:05:07;;;;;;;5.47;3.30;;;;;;;4.69;69.62;98889.75;4484038;32;20133;-70
2022/01/17 12:07:39;;;;;;;7.47;3.78;;;;;;;4.65;70.12;98872.75;4483398;31;20138;-70
2022/01/17 12:10:12;;;;;;;7.97;4.20;;;;;;;4.63;70.23;98866.78;4482243;32;20126;-70
2022/01/17 12:12:39;;;;;;;6.72;3.40;;;;;;;4.60;70.50;98861.78;4494082;31;20088;-70
2022/01/17 12:15:16;;;;;;;10.10;4.65;;;;;;;4.58;70.26;98845.50;4494014;31;20110;-70